Florin, Pennsylvania
Current Conditions -  °F | °C
As of 2:53 AM on Saturday 25 Oct 2014 (Local Time) from KLNS Reporting Station
Clear Clear  
Wind Chill: 44°   Ceiling: Unl
Heat Index: 46°   Visibility: 10mi
Dew Point: 38°   Wind: 5mph
Humidity: 73%   Direction: 270°W
Pressure: 29.93"   Gusts: NA
Location:  40.1077°N, 76.5054°W
Report Text: KLNS 250653Z AUTO 27004KT 10SM CLR 08/03 A2993 RMK AO2 SLP133 T00780033
Loading
Personal Weather Stations






























Interactive Weather Map
Tropical Storm Tracking
New forecast layout! Learn more

10-Day Weather Forecast

Advertisements
Track Severe Weather on mobile